sensor_id;sensor_type;location;lat;lon;timestamp;P1;durP1;ratioP1;P2;durP2;ratioP2
1839;SDS011;920;48.944;9.148;2023-03-01T00:01:10;16.07;;;11.10;;
1839;SDS011;920;48.944;9.148;2023-03-01T00:03:38;15.70;;;10.80;;
1839;SDS011;920;48.944;9.148;2023-03-01T00:06:09;15.80;;;11.10;;
1839;SDS011;920;48.944;9.148;2023-03-01T00:08:36;15.77;;;9.70;;
1839;SDS011;920;48.944;9.148;2023-03-01T00:11:04;14.40;;;9.47;;
1839;SDS011;920;48.944;9.148;2023-03-01T00:13:33;13.53;;;10.10;;
1839;SDS011;920;48.944;9.148;2023-03-01T00:16:01;14.37;;;10.27;;
1839;SDS011;920;48.944;9.148;2023-03-01T00:18:30;15.93;;;10.90;;
1839;SDS011;920;48.944;9.148;2023-03-01T00:20:59;16.90;;;10.77;;
1839;SDS011;920;48.944;9.148;2023-03-01T00:23:26;17.37;;;11.60;;
1839;SDS011;920;48.944;9.148;2023-03-01T00:25:53;14.50;;;9.73;;
1839;SDS011;920;48.944;9.148;2023-03-01T00:28:20;14.43;;;10.70;;
1839;SDS011;920;48.944;9.148;2023-03-01T00:30:46;16.30;;;10.80;;
1839;SDS011;920;48.944;9.148;2023-03-01T00:33:13;13.23;;;10.50;;
1839;SDS011;920;48.944;9.148;2023-03-01T00:35:41;16.57;;;10.47;;
1839;SDS011;920;48.944;9.148;2023-03-01T00:38:08;16.23;;;10.80;;
1839;SDS011;920;48.944;9.148;2023-03-01T00:40:37;14.43;;;11.27;;
1839;SDS011;920;48.944;9.148;2023-03-01T00:43:03;13.67;;;9.93;;
1839;SDS011;920;48.944;9.148;2023-03-01T00:45:31;15.60;;;10.70;;
1839;SDS011;920;48.944;9.148;2023-03-01T00:48:01;25.83;;;11.33;;
1839;SDS011;920;48.944;9.148;2023-03-01T00:50:27;18.17;;;11.10;;
1839;SDS011;920;48.944;9.148;2023-03-01T00:52:56;15.60;;;10.10;;
1839;SDS011;920;48.944;9.148;2023-03-01T00:55:23;15.37;;;10.43;;
1839;SDS011;920;48.944;9.148;2023-03-01T00:57:51;16.47;;;10.23;;
1839;SDS011;920;48.944;9.148;2023-03-01T01:00:19;15.97;;;10.53;;
1839;SDS011;920;48.944;9.148;2023-03-01T01:02:47;15.40;;;9.27;;
1839;SDS011;920;48.944;9.148;2023-03-01T01:05:14;16.00;;;10.37;;
1839;SDS011;920;48.944;9.148;2023-03-01T01:07:46;15.07;;;10.47;;
1839;SDS011;920;48.944;9.148;2023-03-01T01:10:15;13.13;;;9.40;;
1839;SDS011;920;48.944;9.148;2023-03-01T01:12:46;14.67;;;10.33;;
1839;SDS011;920;48.944;9.148;2023-03-01T01:15:20;13.53;;;10.30;;
1839;SDS011;920;48.944;9.148;2023-03-01T01:17:46;18.60;;;9.40;;
1839;SDS011;920;48.944;9.148;2023-03-01T01:20:13;16.10;;;10.23;;
1839;SDS011;920;48.944;9.148;2023-03-01T01:22:42;15.90;;;10.40;;
1839;SDS011;920;48.944;9.148;2023-03-01T01:25:10;16.80;;;10.47;;
1839;SDS011;920;48.944;9.148;2023-03-01T01:27:41;14.83;;;9.23;;
1839;SDS011;920;48.944;9.148;2023-03-01T01:30:08;14.67;;;9.80;;
1839;SDS011;920;48.944;9.148;2023-03-01T01:32:36;15.03;;;10.73;;
1839;SDS011;920;48.944;9.148;2023-03-01T01:35:03;14.57;;;9.80;;
1839;SDS011;920;48.944;9.148;2023-03-01T01:37:32;14.70;;;9.90;;
1839;SDS011;920;48.944;9.148;2023-03-01T01:40:02;14.73;;;9.37;;
1839;SDS011;920;48.944;9.148;2023-03-01T01:42:29;15.67;;;9.83;;
1839;SDS011;920;48.944;9.148;2023-03-01T01:47:57;15.60;;;9.80;;
1839;SDS011;920;48.944;9.148;2023-03-01T01:50:26;16.77;;;11.37;;
1839;SDS011;920;48.944;9.148;2023-03-01T01:53:04;17.43;;;11.23;;
1839;SDS011;920;48.944;9.148;2023-03-01T01:55:34;17.30;;;11.30;;
1839;SDS011;920;48.944;9.148;2023-03-01T01:58:02;16.30;;;9.77;;
1839;SDS011;920;48.944;9.148;2023-03-01T02:00:32;16.63;;;10.50;;
1839;SDS011;920;48.944;9.148;2023-03-01T02:03:00;16.70;;;11.07;;
1839;SDS011;920;48.944;9.148;2023-03-01T02:05:29;16.33;;;11.00;;
1839;SDS011;920;48.944;9.148;2023-03-01T02:08:01;14.73;;;10.90;;
1839;SDS011;920;48.944;9.148;2023-03-01T02:10:31;14.63;;;10.00;;
1839;SDS011;920;48.944;9.148;2023-03-01T02:12:59;14.27;;;10.50;;
1839;SDS011;920;48.944;9.148;2023-03-01T02:15:26;17.90;;;10.63;;
1839;SDS011;920;48.944;9.148;2023-03-01T02:17:54;17.87;;;12.00;;
1839;SDS011;920;48.944;9.148;2023-03-01T02:20:23;18.03;;;12.07;;
1839;SDS011;920;48.944;9.148;2023-03-01T02:22:53;15.30;;;11.23;;
1839;SDS011;920;48.944;9.148;2023-03-01T02:25:24;15.77;;;10.63;;
1839;SDS011;920;48.944;9.148;2023-03-01T02:27:54;18.87;;;12.60;;
1839;SDS011;920;48.944;9.148;2023-03-01T02:30:27;17.03;;;11.30;;
1839;SDS011;920;48.944;9.148;2023-03-01T02:32:55;21.60;;;12.57;;
1839;SDS011;920;48.944;9.148;2023-03-01T02:35:28;17.80;;;12.20;;
1839;SDS011;920;48.944;9.148;2023-03-01T02:37:56;16.80;;;11.33;;
1839;SDS011;920;48.944;9.148;2023-03-01T02:40:25;17.10;;;11.00;;
1839;SDS011;920;48.944;9.148;2023-03-01T02:42:54;17.20;;;11.63;;
1839;SDS011;920;48.944;9.148;2023-03-01T02:45:23;18.63;;;11.87;;
1839;SDS011;920;48.944;9.148;2023-03-01T02:47:52;16.50;;;11.00;;
1839;SDS011;920;48.944;9.148;2023-03-01T02:50:23;15.20;;;9.90;;
1839;SDS011;920;48.944;9.148;2023-03-01T02:53:00;15.67;;;9.97;;
1839;SDS011;920;48.944;9.148;2023-03-01T02:55:30;16.03;;;9.60;;
1839;SDS011;920;48.944;9.148;2023-03-01T02:57:57;16.83;;;11.07;;
1839;SDS011;920;48.944;9.148;2023-03-01T03:00:32;15.10;;;10.23;;
1839;SDS011;920;48.944;9.148;2023-03-01T03:03:06;14.67;;;10.10;;
1839;SDS011;920;48.944;9.148;2023-03-01T03:05:33;15.50;;;10.23;;
1839;SDS011;920;48.944;9.148;2023-03-01T03:08:00;14.30;;;9.53;;
1839;SDS011;920;48.944;9.148;2023-03-01T03:10:33;15.00;;;10.03;;
1839;SDS011;920;48.944;9.148;2023-03-01T03:13:05;14.73;;;9.90;;
1839;SDS011;920;48.944;9.148;2023-03-01T03:15:32;15.97;;;10.47;;
1839;SDS011;920;48.944;9.148;2023-03-01T03:18:01;17.10;;;11.47;;
1839;SDS011;920;48.944;9.148;2023-03-01T03:20:30;15.77;;;10.00;;
1839;SDS011;920;48.944;9.148;2023-03-01T03:22:57;16.57;;;11.03;;
1839;SDS011;920;48.944;9.148;2023-03-01T03:25:24;15.67;;;10.83;;
1839;SDS011;920;48.944;9.148;2023-03-01T03:27:54;16.77;;;11.10;;
1839;SDS011;920;48.944;9.148;2023-03-01T03:30:23;16.47;;;11.70;;
1839;SDS011;920;48.944;9.148;2023-03-01T03:32:51;16.60;;;11.50;;
1839;SDS011;920;48.944;9.148;2023-03-01T03:35:18;16.63;;;11.80;;
1839;SDS011;920;48.944;9.148;2023-03-01T03:37:47;18.33;;;11.87;;
1839;SDS011;920;48.944;9.148;2023-03-01T03:40:29;14.53;;;9.60;;
1839;SDS011;920;48.944;9.148;2023-03-01T03:43:02;15.23;;;10.20;;
1839;SDS011;920;48.944;9.148;2023-03-01T03:45:30;13.37;;;9.10;;
1839;SDS011;920;48.944;9.148;2023-03-01T03:47:58;17.10;;;10.27;;
1839;SDS011;920;48.944;9.148;2023-03-01T03:50:25;16.80;;;10.10;;
1839;SDS011;920;48.944;9.148;2023-03-01T03:52:56;16.43;;;10.67;;
1839;SDS011;920;48.944;9.148;2023-03-01T03:55:23;16.50;;;10.93;;
1839;SDS011;920;48.944;9.148;2023-03-01T03:57:58;15.23;;;10.60;;
1839;SDS011;920;48.944;9.148;2023-03-01T04:00:32;16.17;;;10.70;;
1839;SDS011;920;48.944;9.148;2023-03-01T04:02:59;16.67;;;9.83;;
1839;SDS011;920;48.944;9.148;2023-03-01T04:05:29;15.20;;;9.87;;
1839;SDS011;920;48.944;9.148;2023-03-01T04:07:58;14.57;;;9.87;;
1839;SDS011;920;48.944;9.148;2023-03-01T04:10:28;17.47;;;10.63;;
1839;SDS011;920;48.944;9.148;2023-03-01T04:12:55;16.80;;;11.20;;
1839;SDS011;920;48.944;9.148;2023-03-01T04:15:25;16.40;;;11.40;;
1839;SDS011;920;48.944;9.148;2023-03-01T04:17:52;17.60;;;11.40;;
1839;SDS011;920;48.944;9.148;2023-03-01T04:20:25;19.80;;;12.53;;
1839;SDS011;920;48.944;9.148;2023-03-01T04:22:58;17.60;;;12.10;;
1839;SDS011;920;48.944;9.148;2023-03-01T04:25:38;17.37;;;11.80;;
1839;SDS011;920;48.944;9.148;2023-03-01T04:28:06;17.60;;;11.77;;
1839;SDS011;920;48.944;9.148;2023-03-01T04:30:37;19.30;;;11.67;;
1839;SDS011;920;48.944;9.148;2023-03-01T04:33:04;17.10;;;11.37;;
1839;SDS011;920;48.944;9.148;2023-03-01T04:35:33;17.57;;;11.20;;
1839;SDS011;920;48.944;9.148;2023-03-01T04:38:02;18.80;;;12.13;;
1839;SDS011;920;48.944;9.148;2023-03-01T04:40:29;16.60;;;11.20;;
1839;SDS011;920;48.944;9.148;2023-03-01T04:42:59;15.80;;;11.80;;
1839;SDS011;920;48.944;9.148;2023-03-01T04:45:26;15.83;;;11.10;;
1839;SDS011;920;48.944;9.148;2023-03-01T04:47:53;17.17;;;11.97;;
1839;SDS011;920;48.944;9.148;2023-03-01T04:50:20;19.80;;;13.00;;
1839;SDS011;920;48.944;9.148;2023-03-01T04:52:48;16.10;;;11.67;;
1839;SDS011;920;48.944;9.148;2023-03-01T04:55:17;16.80;;;10.83;;
1839;SDS011;920;48.944;9.148;2023-03-01T04:57:44;16.87;;;11.37;;
1839;SDS011;920;48.944;9.148;2023-03-01T05:00:11;19.80;;;11.40;;
1839;SDS011;920;48.944;9.148;2023-03-01T05:02:52;19.90;;;11.23;;
1839;SDS011;920;48.944;9.148;2023-03-01T05:05:21;20.07;;;12.20;;
1839;SDS011;920;48.944;9.148;2023-03-01T05:07:51;18.30;;;12.70;;
1839;SDS011;920;48.944;9.148;2023-03-01T05:10:28;19.10;;;12.07;;
1839;SDS011;920;48.944;9.148;2023-03-01T05:12:56;19.53;;;12.20;;
1839;SDS011;920;48.944;9.148;2023-03-01T05:15:24;17.70;;;11.97;;
1839;SDS011;920;48.944;9.148;2023-03-01T05:17:52;22.47;;;12.77;;
1839;SDS011;920;48.944;9.148;2023-03-01T05:20:19;17.50;;;12.30;;
1839;SDS011;920;48.944;9.148;2023-03-01T05:22:49;19.13;;;13.10;;
1839;SDS011;920;48.944;9.148;2023-03-01T05:25:16;20.40;;;13.63;;
1839;SDS011;920;48.944;9.148;2023-03-01T05:27:44;20.33;;;12.17;;
1839;SDS011;920;48.944;9.148;2023-03-01T05:30:14;23.07;;;13.83;;
1839;SDS011;920;48.944;9.148;2023-03-01T05:32:45;21.20;;;13.93;;
1839;SDS011;920;48.944;9.148;2023-03-01T05:35:15;19.10;;;11.40;;
1839;SDS011;920;48.944;9.148;2023-03-01T05:37:43;18.97;;;12.30;;
1839;SDS011;920;48.944;9.148;2023-03-01T05:40:14;23.60;;;13.37;;
1839;SDS011;920;48.944;9.148;2023-03-01T05:42:46;19.10;;;12.13;;
1839;SDS011;920;48.944;9.148;2023-03-01T05:45:14;20.93;;;13.23;;
1839;SDS011;920;48.944;9.148;2023-03-01T05:47:43;18.40;;;13.23;;
1839;SDS011;920;48.944;9.148;2023-03-01T05:50:12;18.50;;;11.60;;
1839;SDS011;920;48.944;9.148;2023-03-01T05:52:43;18.93;;;12.33;;
1839;SDS011;920;48.944;9.148;2023-03-01T05:55:10;17.53;;;11.43;;
1839;SDS011;920;48.944;9.148;2023-03-01T05:57:37;20.10;;;12.27;;
1839;SDS011;920;48.944;9.148;2023-03-01T06:00:05;22.53;;;12.93;;
1839;SDS011;920;48.944;9.148;2023-03-01T06:02:37;25.50;;;15.57;;
1839;SDS011;920;48.944;9.148;2023-03-01T06:05:05;28.93;;;15.20;;
1839;SDS011;920;48.944;9.148;2023-03-01T06:07:35;30.07;;;16.90;;
1839;SDS011;920;48.944;9.148;2023-03-01T06:10:03;24.53;;;14.87;;
1839;SDS011;920;48.944;9.148;2023-03-01T06:12:33;27.73;;;15.20;;
1839;SDS011;920;48.944;9.148;2023-03-01T06:15:02;34.20;;;18.10;;
1839;SDS011;920;48.944;9.148;2023-03-01T06:17:32;30.77;;;17.47;;
1839;SDS011;920;48.944;9.148;2023-03-01T06:20:02;28.80;;;17.03;;
1839;SDS011;920;48.944;9.148;2023-03-01T06:22:31;31.13;;;17.30;;
1839;SDS011;920;48.944;9.148;2023-03-01T06:24:57;27.47;;;16.77;;
1839;SDS011;920;48.944;9.148;2023-03-01T06:27:24;31.83;;;16.10;;
1839;SDS011;920;48.944;9.148;2023-03-01T06:29:51;23.43;;;14.47;;
1839;SDS011;920;48.944;9.148;2023-03-01T06:32:18;25.63;;;14.73;;
1839;SDS011;920;48.944;9.148;2023-03-01T06:34:46;22.30;;;14.40;;
1839;SDS011;920;48.944;9.148;2023-03-01T06:37:13;20.57;;;13.30;;
1839;SDS011;920;48.944;9.148;2023-03-01T06:39:39;18.97;;;13.10;;
1839;SDS011;920;48.944;9.148;2023-03-01T06:42:07;20.87;;;13.50;;
1839;SDS011;920;48.944;9.148;2023-03-01T06:44:35;24.27;;;14.03;;
1839;SDS011;920;48.944;9.148;2023-03-01T06:47:04;20.70;;;13.70;;
1839;SDS011;920;48.944;9.148;2023-03-01T06:49:31;22.80;;;14.60;;
1839;SDS011;920;48.944;9.148;2023-03-01T06:51:59;25.70;;;14.90;;
1839;SDS011;920;48.944;9.148;2023-03-01T06:54:26;22.37;;;13.90;;
1839;SDS011;920;48.944;9.148;2023-03-01T06:56:53;25.73;;;15.57;;
1839;SDS011;920;48.944;9.148;2023-03-01T06:59:24;22.70;;;14.77;;
1839;SDS011;920;48.944;9.148;2023-03-01T07:01:54;24.30;;;15.47;;
1839;SDS011;920;48.944;9.148;2023-03-01T07:04:21;23.10;;;14.47;;
1839;SDS011;920;48.944;9.148;2023-03-01T07:06:49;23.17;;;14.93;;
1839;SDS011;920;48.944;9.148;2023-03-01T07:09:21;19.70;;;14.53;;
1839;SDS011;920;48.944;9.148;2023-03-01T07:11:48;23.60;;;15.07;;
1839;SDS011;920;48.944;9.148;2023-03-01T07:14:15;20.53;;;13.67;;
1839;SDS011;920;48.944;9.148;2023-03-01T07:16:45;19.27;;;14.60;;
1839;SDS011;920;48.944;9.148;2023-03-01T07:19:12;23.70;;;15.23;;
1839;SDS011;920;48.944;9.148;2023-03-01T07:21:38;21.00;;;13.80;;
1839;SDS011;920;48.944;9.148;2023-03-01T07:24:06;19.80;;;13.90;;
1839;SDS011;920;48.944;9.148;2023-03-01T07:26:39;19.30;;;12.10;;
1839;SDS011;920;48.944;9.148;2023-03-01T07:29:06;21.83;;;13.23;;
1839;SDS011;920;48.944;9.148;2023-03-01T07:31:36;20.23;;;13.63;;
1839;SDS011;920;48.944;9.148;2023-03-01T07:34:04;19.17;;;12.83;;
1839;SDS011;920;48.944;9.148;2023-03-01T07:36:31;20.13;;;13.17;;
1839;SDS011;920;48.944;9.148;2023-03-01T07:39:00;24.53;;;13.30;;
1839;SDS011;920;48.944;9.148;2023-03-01T07:41:28;25.23;;;14.30;;
1839;SDS011;920;48.944;9.148;2023-03-01T07:43:59;22.23;;;15.30;;
1839;SDS011;920;48.944;9.148;2023-03-01T07:46:25;22.53;;;14.53;;
1839;SDS011;920;48.944;9.148;2023-03-01T07:48:52;26.20;;;16.57;;
1839;SDS011;920;48.944;9.148;2023-03-01T07:51:19;20.67;;;13.93;;
1839;SDS011;920;48.944;9.148;2023-03-01T07:53:48;22.50;;;14.37;;
1839;SDS011;920;48.944;9.148;2023-03-01T07:56:16;17.80;;;13.03;;
1839;SDS011;920;48.944;9.148;2023-03-01T07:58:47;23.40;;;14.20;;
1839;SDS011;920;48.944;9.148;2023-03-01T08:01:19;24.47;;;14.77;;
1839;SDS011;920;48.944;9.148;2023-03-01T08:03:47;22.40;;;14.40;;
1839;SDS011;920;48.944;9.148;2023-03-01T08:06:17;22.60;;;15.40;;
1839;SDS011;920;48.944;9.148;2023-03-01T08:08:44;23.13;;;15.77;;
1839;SDS011;920;48.944;9.148;2023-03-01T08:11:13;22.93;;;15.93;;
1839;SDS011;920;48.944;9.148;2023-03-01T08:13:41;24.20;;;16.63;;
1839;SDS011;920;48.944;9.148;2023-03-01T08:16:09;23.90;;;16.23;;
1839;SDS011;920;48.944;9.148;2023-03-01T08:18:41;22.57;;;16.00;;
1839;SDS011;920;48.944;9.148;2023-03-01T08:21:09;21.33;;;14.90;;
1839;SDS011;920;48.944;9.148;2023-03-01T08:23:37;24.50;;;15.77;;
1839;SDS011;920;48.944;9.148;2023-03-01T08:26:07;24.40;;;15.47;;
1839;SDS011;920;48.944;9.148;2023-03-01T08:28:37;20.37;;;14.70;;
1839;SDS011;920;48.944;9.148;2023-03-01T08:31:12;25.97;;;17.77;;
1839;SDS011;920;48.944;9.148;2023-03-01T08:33:55;25.43;;;17.40;;
1839;SDS011;920;48.944;9.148;2023-03-01T08:36:25;26.70;;;16.80;;
1839;SDS011;920;48.944;9.148;2023-03-01T08:38:58;23.10;;;15.70;;
1839;SDS011;920;48.944;9.148;2023-03-01T08:41:28;23.97;;;15.73;;
1839;SDS011;920;48.944;9.148;2023-03-01T08:43:55;22.60;;;15.80;;
1839;SDS011;920;48.944;9.148;2023-03-01T08:46:28;20.30;;;14.73;;
1839;SDS011;920;48.944;9.148;2023-03-01T08:48:57;23.83;;;15.90;;
1839;SDS011;920;48.944;9.148;2023-03-01T08:51:25;24.60;;;16.17;;
1839;SDS011;920;48.944;9.148;2023-03-01T08:53:57;27.90;;;16.83;;
1839;SDS011;920;48.944;9.148;2023-03-01T08:56:26;25.60;;;16.27;;
1839;SDS011;920;48.944;9.148;2023-03-01T08:58:53;22.20;;;14.53;;
1839;SDS011;920;48.944;9.148;2023-03-01T09:01:22;20.93;;;15.27;;
1839;SDS011;920;48.944;9.148;2023-03-01T09:03:49;20.47;;;14.70;;
1839;SDS011;920;48.944;9.148;2023-03-01T09:06:19;26.00;;;15.43;;
1839;SDS011;920;48.944;9.148;2023-03-01T09:08:46;24.90;;;15.93;;
1839;SDS011;920;48.944;9.148;2023-03-01T09:11:14;25.23;;;14.80;;
1839;SDS011;920;48.944;9.148;2023-03-01T09:13:42;20.60;;;14.70;;
1839;SDS011;920;48.944;9.148;2023-03-01T09:16:11;24.37;;;17.20;;
1839;SDS011;920;48.944;9.148;2023-03-01T09:18:50;23.23;;;15.50;;
1839;SDS011;920;48.944;9.148;2023-03-01T09:21:20;20.63;;;15.73;;
1839;SDS011;920;48.944;9.148;2023-03-01T09:23:50;22.67;;;16.37;;
1839;SDS011;920;48.944;9.148;2023-03-01T09:26:18;22.70;;;16.37;;
1839;SDS011;920;48.944;9.148;2023-03-01T09:28:50;24.37;;;17.30;;
1839;SDS011;920;48.944;9.148;2023-03-01T09:31:18;23.20;;;16.77;;
1839;SDS011;920;48.944;9.148;2023-03-01T09:33:46;23.47;;;16.70;;
1839;SDS011;920;48.944;9.148;2023-03-01T09:36:18;24.47;;;17.87;;
1839;SDS011;920;48.944;9.148;2023-03-01T09:38:47;22.13;;;16.27;;
1839;SDS011;920;48.944;9.148;2023-03-01T09:41:24;24.77;;;16.87;;
1839;SDS011;920;48.944;9.148;2023-03-01T09:44:07;24.27;;;17.50;;
1839;SDS011;920;48.944;9.148;2023-03-01T09:46:40;28.50;;;18.33;;
1839;SDS011;920;48.944;9.148;2023-03-01T09:49:10;21.67;;;16.00;;
1839;SDS011;920;48.944;9.148;2023-03-01T09:51:41;24.03;;;16.97;;
1839;SDS011;920;48.944;9.148;2023-03-01T09:54:08;24.17;;;18.50;;
1839;SDS011;920;48.944;9.148;2023-03-01T09:56:38;20.03;;;15.83;;
1839;SDS011;920;48.944;9.148;2023-03-01T09:59:10;24.80;;;16.40;;
1839;SDS011;920;48.944;9.148;2023-03-01T10:01:46;21.90;;;16.03;;
1839;SDS011;920;48.944;9.148;2023-03-01T10:04:23;23.40;;;15.53;;
1839;SDS011;920;48.944;9.148;2023-03-01T10:07:05;21.13;;;15.37;;
1839;SDS011;920;48.944;9.148;2023-03-01T10:09:40;25.33;;;16.27;;
1839;SDS011;920;48.944;9.148;2023-03-01T10:12:10;23.03;;;16.70;;
1839;SDS011;920;48.944;9.148;2023-03-01T10:14:43;19.03;;;14.37;;
1839;SDS011;920;48.944;9.148;2023-03-01T10:17:28;21.83;;;16.17;;
1839;SDS011;920;48.944;9.148;2023-03-01T10:19:58;21.93;;;14.97;;
1839;SDS011;920;48.944;9.148;2023-03-01T10:22:43;22.87;;;14.80;;
1839;SDS011;920;48.944;9.148;2023-03-01T10:25:14;20.00;;;15.40;;
1839;SDS011;920;48.944;9.148;2023-03-01T10:27:43;21.17;;;15.60;;
1839;SDS011;920;48.944;9.148;2023-03-01T10:30:13;20.67;;;15.37;;
1839;SDS011;920;48.944;9.148;2023-03-01T10:32:48;22.03;;;15.60;;
1839;SDS011;920;48.944;9.148;2023-03-01T10:35:18;20.17;;;15.43;;
1839;SDS011;920;48.944;9.148;2023-03-01T10:38:01;21.20;;;15.33;;
1839;SDS011;920;48.944;9.148;2023-03-01T10:40:35;22.80;;;15.53;;
1839;SDS011;920;48.944;9.148;2023-03-01T10:43:18;22.57;;;15.37;;
1839;SDS011;920;48.944;9.148;2023-03-01T10:45:45;21.63;;;16.63;;
1839;SDS011;920;48.944;9.148;2023-03-01T10:48:17;18.60;;;13.70;;
1839;SDS011;920;48.944;9.148;2023-03-01T10:50:46;22.70;;;16.60;;
1839;SDS011;920;48.944;9.148;2023-03-01T10:53:26;20.93;;;15.93;;
1839;SDS011;920;48.944;9.148;2023-03-01T10:55:59;22.30;;;15.83;;
1839;SDS011;920;48.944;9.148;2023-03-01T10:58:28;19.53;;;14.77;;
1839;SDS011;920;48.944;9.148;2023-03-01T11:00:55;20.80;;;15.33;;
1839;SDS011;920;48.944;9.148;2023-03-01T11:03:23;20.93;;;14.50;;
1839;SDS011;920;48.944;9.148;2023-03-01T11:05:55;20.37;;;15.30;;
1839;SDS011;920;48.944;9.148;2023-03-01T11:08:39;18.33;;;13.77;;
1839;SDS011;920;48.944;9.148;2023-03-01T11:11:24;21.83;;;14.37;;
1839;SDS011;920;48.944;9.148;2023-03-01T11:14:04;18.90;;;14.67;;
1839;SDS011;920;48.944;9.148;2023-03-01T11:16:35;25.17;;;16.07;;
1839;SDS011;920;48.944;9.148;2023-03-01T11:19:16;19.97;;;15.17;;
1839;SDS011;920;48.944;9.148;2023-03-01T11:21:57;21.97;;;15.93;;
1839;SDS011;920;48.944;9.148;2023-03-01T11:24:31;20.20;;;15.23;;
1839;SDS011;920;48.944;9.148;2023-03-01T11:27:06;22.03;;;17.13;;
1839;SDS011;920;48.944;9.148;2023-03-01T11:29:42;19.07;;;15.37;;
1839;SDS011;920;48.944;9.148;2023-03-01T11:32:19;17.93;;;13.57;;
1839;SDS011;920;48.944;9.148;2023-03-01T11:34:53;21.00;;;14.20;;
1839;SDS011;920;48.944;9.148;2023-03-01T11:37:28;20.90;;;15.90;;
1839;SDS011;920;48.944;9.148;2023-03-01T11:40:16;21.10;;;15.20;;
1839;SDS011;920;48.944;9.148;2023-03-01T11:42:55;21.70;;;15.83;;
1839;SDS011;920;48.944;9.148;2023-03-01T11:45:36;19.07;;;14.40;;
1839;SDS011;920;48.944;9.148;2023-03-01T11:48:25;20.20;;;13.90;;
1839;SDS011;920;48.944;9.148;2023-03-01T11:51:00;20.53;;;14.73;;
1839;SDS011;920;48.944;9.148;2023-03-01T11:53:36;18.40;;;15.20;;
1839;SDS011;920;48.944;9.148;2023-03-01T11:56:36;19.77;;;15.30;;
1839;SDS011;920;48.944;9.148;2023-03-01T11:59:34;18.30;;;14.37;;
1839;SDS011;920;48.944;9.148;2023-03-01T12:02:34;17.70;;;13.20;;
1839;SDS011;920;48.944;9.148;2023-03-01T12:08:17;19.50;;;14.53;;
1839;SDS011;920;48.944;9.148;2023-03-01T12:10:52;19.60;;;16.40;;
1839;SDS011;920;48.944;9.148;2023-03-01T12:13:27;18.27;;;14.57;;
1839;SDS011;920;48.944;9.148;2023-03-01T12:16:22;17.67;;;13.97;;
1839;SDS011;920;48.944;9.148;2023-03-01T12:19:08;18.60;;;14.70;;
1839;SDS011;920;48.944;9.148;2023-03-01T12:21:49;22.77;;;17.67;;
1839;SDS011;920;48.944;9.148;2023-03-01T12:24:42;24.60;;;18.50;;
1839;SDS011;920;48.944;9.148;2023-03-01T12:30:25;21.00;;;16.53;;
1839;SDS011;920;48.944;9.148;2023-03-01T12:33:10;20.67;;;15.40;;
1839;SDS011;920;48.944;9.148;2023-03-01T12:35:54;20.00;;;15.53;;
1839;SDS011;920;48.944;9.148;2023-03-01T12:38:37;16.50;;;14.00;;
1839;SDS011;920;48.944;9.148;2023-03-01T12:41:13;21.40;;;16.60;;
1839;SDS011;920;48.944;9.148;2023-03-01T12:44:04;17.90;;;15.10;;
1839;SDS011;920;48.944;9.148;2023-03-01T12:46:45;19.53;;;15.00;;
1839;SDS011;920;48.944;9.148;2023-03-01T12:49:23;21.70;;;16.30;;
1839;SDS011;920;48.944;9.148;2023-03-01T12:51:58;18.90;;;15.10;;
1839;SDS011;920;48.944;9.148;2023-03-01T12:54:29;19.73;;;15.57;;
1839;SDS011;920;48.944;9.148;2023-03-01T12:57:02;18.90;;;14.70;;
1839;SDS011;920;48.944;9.148;2023-03-01T12:59:38;22.00;;;16.50;;
1839;SDS011;920;48.944;9.148;2023-03-01T13:02:13;18.10;;;15.67;;
1839;SDS011;920;48.944;9.148;2023-03-01T13:04:52;19.60;;;14.70;;
1839;SDS011;920;48.944;9.148;2023-03-01T13:07:25;21.63;;;16.70;;
1839;SDS011;920;48.944;9.148;2023-03-01T13:10:01;21.63;;;17.07;;
1839;SDS011;920;48.944;9.148;2023-03-01T13:12:42;18.83;;;15.50;;
1839;SDS011;920;48.944;9.148;2023-03-01T13:15:28;21.30;;;16.87;;
1839;SDS011;920;48.944;9.148;2023-03-01T13:18:33;21.00;;;16.10;;
1839;SDS011;920;48.944;9.148;2023-03-01T13:21:28;16.67;;;13.83;;
1839;SDS011;920;48.944;9.148;2023-03-01T13:23:56;19.37;;;15.87;;
1839;SDS011;920;48.944;9.148;2023-03-01T13:26:27;20.67;;;16.90;;
1839;SDS011;920;48.944;9.148;2023-03-01T13:28:59;20.93;;;15.20;;
1839;SDS011;920;48.944;9.148;2023-03-01T13:34:46;18.40;;;15.73;;
1839;SDS011;920;48.944;9.148;2023-03-01T13:37:20;20.00;;;16.63;;
1839;SDS011;920;48.944;9.148;2023-03-01T13:39:55;20.23;;;16.20;;
1839;SDS011;920;48.944;9.148;2023-03-01T13:42:31;18.73;;;15.63;;
1839;SDS011;920;48.944;9.148;2023-03-01T13:45:02;17.73;;;15.47;;
1839;SDS011;920;48.944;9.148;2023-03-01T13:47:32;23.30;;;18.63;;
1839;SDS011;920;48.944;9.148;2023-03-01T13:50:05;20.07;;;15.70;;
1839;SDS011;920;48.944;9.148;2023-03-01T13:52:48;21.00;;;17.73;;
1839;SDS011;920;48.944;9.148;2023-03-01T13:55:21;27.73;;;17.20;;
1839;SDS011;920;48.944;9.148;2023-03-01T13:57:50;20.83;;;16.07;;
1839;SDS011;920;48.944;9.148;2023-03-01T14:00:33;19.03;;;15.37;;
1839;SDS011;920;48.944;9.148;2023-03-01T14:03:09;19.60;;;15.93;;
1839;SDS011;920;48.944;9.148;2023-03-01T14:05:41;19.10;;;16.17;;
1839;SDS011;920;48.944;9.148;2023-03-01T14:08:21;17.37;;;15.30;;
1839;SDS011;920;48.944;9.148;2023-03-01T14:10:55;22.37;;;17.70;;
1839;SDS011;920;48.944;9.148;2023-03-01T14:13:38;20.60;;;16.57;;
1839;SDS011;920;48.944;9.148;2023-03-01T14:16:14;22.67;;;16.67;;
1839;SDS011;920;48.944;9.148;2023-03-01T14:19:00;20.77;;;16.90;;
1839;SDS011;920;48.944;9.148;2023-03-01T14:21:38;19.03;;;15.63;;
1839;SDS011;920;48.944;9.148;2023-03-01T14:24:16;20.10;;;15.30;;
1839;SDS011;920;48.944;9.148;2023-03-01T14:26:53;22.20;;;17.93;;
1839;SDS011;920;48.944;9.148;2023-03-01T14:29:24;20.77;;;17.10;;
1839;SDS011;920;48.944;9.148;2023-03-01T14:32:01;21.53;;;17.07;;
1839;SDS011;920;48.944;9.148;2023-03-01T14:34:42;24.63;;;18.40;;
1839;SDS011;920;48.944;9.148;2023-03-01T14:37:24;20.13;;;15.77;;
1839;SDS011;920;48.944;9.148;2023-03-01T14:39:53;21.40;;;17.40;;
1839;SDS011;920;48.944;9.148;2023-03-01T14:42:24;18.53;;;15.37;;
1839;SDS011;920;48.944;9.148;2023-03-01T14:45:09;20.43;;;16.80;;
1839;SDS011;920;48.944;9.148;2023-03-01T14:47:43;24.23;;;17.60;;
1839;SDS011;920;48.944;9.148;2023-03-01T14:50:15;20.63;;;17.50;;
1839;SDS011;920;48.944;9.148;2023-03-01T14:52:58;21.70;;;17.20;;
1839;SDS011;920;48.944;9.148;2023-03-01T14:55:46;24.30;;;16.67;;
1839;SDS011;920;48.944;9.148;2023-03-01T14:58:18;19.23;;;15.20;;
1839;SDS011;920;48.944;9.148;2023-03-01T15:00:55;21.97;;;16.70;;
1839;SDS011;920;48.944;9.148;2023-03-01T15:03:35;20.27;;;15.97;;
1839;SDS011;920;48.944;9.148;2023-03-01T15:06:07;22.17;;;17.70;;
1839;SDS011;920;48.944;9.148;2023-03-01T15:08:45;19.50;;;16.23;;
1839;SDS011;920;48.944;9.148;2023-03-01T15:11:37;19.10;;;15.37;;
1839;SDS011;920;48.944;9.148;2023-03-01T15:17:19;24.43;;;16.77;;
1839;SDS011;920;48.944;9.148;2023-03-01T15:19:52;19.57;;;16.77;;
1839;SDS011;920;48.944;9.148;2023-03-01T15:22:24;19.47;;;16.63;;
1839;SDS011;920;48.944;9.148;2023-03-01T15:25:05;21.20;;;16.90;;
1839;SDS011;920;48.944;9.148;2023-03-01T15:27:44;18.70;;;15.70;;
1839;SDS011;920;48.944;9.148;2023-03-01T15:30:13;22.97;;;16.87;;
1839;SDS011;920;48.944;9.148;2023-03-01T15:32:46;20.20;;;16.70;;
1839;SDS011;920;48.944;9.148;2023-03-01T15:35:44;24.00;;;16.33;;
1839;SDS011;920;48.944;9.148;2023-03-01T15:41:26;21.70;;;16.40;;
1839;SDS011;920;48.944;9.148;2023-03-01T15:43:56;19.00;;;15.00;;
1839;SDS011;920;48.944;9.148;2023-03-01T15:46:45;20.07;;;15.87;;
1839;SDS011;920;48.944;9.148;2023-03-01T15:49:21;17.73;;;14.20;;
1839;SDS011;920;48.944;9.148;2023-03-01T15:51:55;18.90;;;14.40;;